ホノルル の空港の天気 - METARとTAF

ホノルル国際空港 ( PHNL / HNL ) - アメリカ合衆国 ハワイ州ホノルル
飛行場実況気象(Metar)
観測時間04/27 05:53 HST (04/27 15:53 UTC)
風向・風速北 2m/s
視程10km以上
天気現象
少しの雲 雲底高度 730m
全天の4割程度の雲 雲底高度 1040m
全天の8割程度の雲 雲底高度 2130m
気温22.8℃
湿度79%
気圧1016.7hPa
METARPHNL 271553Z 36003KT 10SM FEW024 SCT034 BKN070 23/19 A3002 RMK AO2 SLP167 T02280189
過去の天気等 Google飛行場航空写真 Wunderground天気予報

過去48時間のMETAR

飛行場予報(TAF)
発表時間: 4/27 05:04 HST (4/27 15:04 UTC)
予報対象時間: 27日5時 HST ~ 28日8時 HST
風向・風速北北西 3m/s
視程10km以上
少しの雲 雲底高度 760m
全天の4割程度の雲 雲底高度 1,370m
27日10時 HST から
風向・風速東南東 5m/s
視程10km以上
少しの雲 雲底高度 760m
全天の4割程度の雲 雲底高度 1,370m
27日13時 HST から
風向・風速南南東 5m/s
視程10km以上
天気現象周辺でしゅう雨
全天の4割程度の雲 雲底高度 760m
全天の8割程度の雲 雲底高度 1,520m
27日19時 HST から
風向・風速北北東 3m/s
視程10km以上
天気現象周辺でしゅう雨
全天の4割程度の雲 雲底高度 760m
全天の8割程度の雲 雲底高度 1,520m
PHNL 271504Z 2715/2818 34005KT P6SM FEW025 SCT045
FM272000 12010KT P6SM FEW025 SCT045
FM272300 15010KT P6SM VCSH SCT025 BKN050
FM280500 03005KT P6SM VCSH SCT025 BKN050